sensor_id;sensor_type;location;lat;lon;timestamp;pressure;altitude;pressure_sealevel;temperature;humidity
56594;BME280;42474;51.660;5.824;2023-01-27T00:03:03;102390.0;;;5.6;81.5
56594;BME280;42474;51.660;5.824;2023-01-27T00:08:03;102390.0;;;5.5;82.0
56594;BME280;42474;51.660;5.824;2023-01-27T00:13:03;102400.0;;;5.6;81.5
56594;BME280;42474;51.660;5.824;2023-01-27T00:18:03;102390.0;;;5.5;81.5
56594;BME280;42474;51.660;5.824;2023-01-27T00:23:03;102400.0;;;5.4;81.5
56594;BME280;42474;51.660;5.824;2023-01-27T00:28:03;102400.0;;;5.4;82.0
56594;BME280;42474;51.660;5.824;2023-01-27T00:33:03;102400.0;;;5.4;83.0
56594;BME280;42474;51.660;5.824;2023-01-27T00:38:03;102400.0;;;5.3;83.0
56594;BME280;42474;51.660;5.824;2023-01-27T00:43:03;102410.0;;;5.3;83.0
56594;BME280;42474;51.660;5.824;2023-01-27T00:48:03;102400.0;;;5.3;83.5
56594;BME280;42474;51.660;5.824;2023-01-27T00:53:02;102400.0;;;5.4;83.0
56594;BME280;42474;51.660;5.824;2023-01-27T00:58:03;102400.0;;;5.3;82.5
56594;BME280;42474;51.660;5.824;2023-01-27T01:03:03;102420.0;;;5.2;83.0
56594;BME280;42474;51.660;5.824;2023-01-27T01:08:03;102420.0;;;5.3;82.0
56594;BME280;42474;51.660;5.824;2023-01-27T01:13:03;102420.0;;;5.2;82.5
56594;BME280;42474;51.660;5.824;2023-01-27T01:18:04;102410.0;;;5.1;83.0
56594;BME280;42474;51.660;5.824;2023-01-27T01:23:03;102420.0;;;5.1;82.5
56594;BME280;42474;51.660;5.824;2023-01-27T01:28:06;102430.0;;;5.1;83.0
56594;BME280;42474;51.660;5.824;2023-01-27T01:33:03;102420.0;;;5.1;83.5
56594;BME280;42474;51.660;5.824;2023-01-27T01:38:03;102420.0;;;5.1;83.0
56594;BME280;42474;51.660;5.824;2023-01-27T01:43:03;102440.0;;;5.1;82.5
56594;BME280;42474;51.660;5.824;2023-01-27T01:48:07;102430.0;;;5.1;82.0
56594;BME280;42474;51.660;5.824;2023-01-27T01:53:03;102430.0;;;5.1;82.0
56594;BME280;42474;51.660;5.824;2023-01-27T01:58:03;102430.0;;;5.1;82.0
56594;BME280;42474;51.660;5.824;2023-01-27T02:03:03;102440.0;;;5.1;82.0
56594;BME280;42474;51.660;5.824;2023-01-27T02:08:10;102440.0;;;5.1;81.5
56594;BME280;42474;51.660;5.824;2023-01-27T02:13:03;102440.0;;;5.0;80.5
56594;BME280;42474;51.660;5.824;2023-01-27T02:18:03;102450.0;;;5.0;82.0
56594;BME280;42474;51.660;5.824;2023-01-27T02:23:26;102450.0;;;5.0;82.5
56594;BME280;42474;51.660;5.824;2023-01-27T02:28:04;102450.0;;;5.0;82.0
56594;BME280;42474;51.660;5.824;2023-01-27T02:33:05;102450.0;;;5.0;82.0
56594;BME280;42474;51.660;5.824;2023-01-27T02:38:04;102460.0;;;5.0;83.0
56594;BME280;42474;51.660;5.824;2023-01-27T02:43:03;102460.0;;;5.0;82.5
56594;BME280;42474;51.660;5.824;2023-01-27T02:48:03;102450.0;;;5.0;83.0
56594;BME280;42474;51.660;5.824;2023-01-27T02:53:03;102450.0;;;5.0;83.0
56594;BME280;42474;51.660;5.824;2023-01-27T02:58:03;102450.0;;;5.0;83.0
56594;BME280;42474;51.660;5.824;2023-01-27T03:03:03;102460.0;;;5.0;83.5
56594;BME280;42474;51.660;5.824;2023-01-27T03:08:03;102450.0;;;5.1;83.0
56594;BME280;42474;51.660;5.824;2023-01-27T03:13:03;102460.0;;;5.0;83.5
56594;BME280;42474;51.660;5.824;2023-01-27T03:18:04;102470.0;;;5.0;84.0
56594;BME280;42474;51.660;5.824;2023-01-27T03:23:03;102480.0;;;5.0;84.5
56594;BME280;42474;51.660;5.824;2023-01-27T03:28:03;102470.0;;;4.9;84.5
56594;BME280;42474;51.660;5.824;2023-01-27T03:33:03;102470.0;;;4.9;84.5
56594;BME280;42474;51.660;5.824;2023-01-27T03:38:03;102480.0;;;5.0;84.0
56594;BME280;42474;51.660;5.824;2023-01-27T03:43:03;102480.0;;;4.9;84.5
56594;BME280;42474;51.660;5.824;2023-01-27T03:48:03;102490.0;;;4.9;85.0
56594;BME280;42474;51.660;5.824;2023-01-27T03:53:03;102510.0;;;4.9;84.5
56594;BME280;42474;51.660;5.824;2023-01-27T03:58:03;102510.0;;;4.9;84.0
56594;BME280;42474;51.660;5.824;2023-01-27T04:03:03;102510.0;;;4.8;84.5
56594;BME280;42474;51.660;5.824;2023-01-27T04:08:04;102510.0;;;4.9;84.5
56594;BME280;42474;51.660;5.824;2023-01-27T04:13:03;102500.0;;;4.8;84.5
56594;BME280;42474;51.660;5.824;2023-01-27T04:18:03;102500.0;;;4.8;85.0
56594;BME280;42474;51.660;5.824;2023-01-27T04:23:03;102500.0;;;4.8;85.5
56594;BME280;42474;51.660;5.824;2023-01-27T04:28:03;102510.0;;;4.7;85.5
56594;BME280;42474;51.660;5.824;2023-01-27T04:33:03;102500.0;;;4.7;85.5
56594;BME280;42474;51.660;5.824;2023-01-27T04:38:03;102510.0;;;4.7;86.0
56594;BME280;42474;51.660;5.824;2023-01-27T04:43:03;102510.0;;;4.6;86.5
56594;BME280;42474;51.660;5.824;2023-01-27T04:48:03;102510.0;;;4.7;86.5
56594;BME280;42474;51.660;5.824;2023-01-27T04:53:03;102520.0;;;4.7;87.0
56594;BME280;42474;51.660;5.824;2023-01-27T04:58:03;102510.0;;;4.6;86.5
56594;BME280;42474;51.660;5.824;2023-01-27T05:03:03;102520.0;;;4.7;86.5
56594;BME280;42474;51.660;5.824;2023-01-27T05:08:03;102530.0;;;4.6;87.0
56594;BME280;42474;51.660;5.824;2023-01-27T05:13:03;102540.0;;;4.6;86.5
56594;BME280;42474;51.660;5.824;2023-01-27T05:18:03;102530.0;;;4.6;87.0
56594;BME280;42474;51.660;5.824;2023-01-27T05:23:03;102530.0;;;4.6;87.0
56594;BME280;42474;51.660;5.824;2023-01-27T05:28:03;102530.0;;;4.5;87.5
56594;BME280;42474;51.660;5.824;2023-01-27T05:33:03;102530.0;;;4.5;87.5
56594;BME280;42474;51.660;5.824;2023-01-27T05:38:03;102540.0;;;4.7;86.5
56594;BME280;42474;51.660;5.824;2023-01-27T05:43:03;102550.0;;;4.7;86.5
56594;BME280;42474;51.660;5.824;2023-01-27T05:48:03;102550.0;;;4.7;86.5
56594;BME280;42474;51.660;5.824;2023-01-27T05:53:03;102540.0;;;4.8;86.0
56594;BME280;42474;51.660;5.824;2023-01-27T05:58:03;102540.0;;;4.8;86.5
56594;BME280;42474;51.660;5.824;2023-01-27T06:03:03;102550.0;;;4.8;86.0
56594;BME280;42474;51.660;5.824;2023-01-27T06:08:03;102550.0;;;4.8;86.5
56594;BME280;42474;51.660;5.824;2023-01-27T06:13:03;102550.0;;;4.8;86.0
56594;BME280;42474;51.660;5.824;2023-01-27T06:18:03;102560.0;;;4.8;86.0
56594;BME280;42474;51.660;5.824;2023-01-27T06:23:03;102560.0;;;4.9;86.0
56594;BME280;42474;51.660;5.824;2023-01-27T06:28:03;102560.0;;;4.9;85.5
56594;BME280;42474;51.660;5.824;2023-01-27T06:33:03;102570.0;;;4.8;85.5
56594;BME280;42474;51.660;5.824;2023-01-27T06:38:07;102580.0;;;4.8;86.0
56594;BME280;42474;51.660;5.824;2023-01-27T06:43:03;102570.0;;;4.8;86.0
56594;BME280;42474;51.660;5.824;2023-01-27T06:48:03;102570.0;;;4.8;85.0
56594;BME280;42474;51.660;5.824;2023-01-27T06:53:07;102580.0;;;4.9;85.0
56594;BME280;42474;51.660;5.824;2023-01-27T06:58:03;102580.0;;;4.9;84.0
56594;BME280;42474;51.660;5.824;2023-01-27T07:03:03;102570.0;;;4.9;84.0
56594;BME280;42474;51.660;5.824;2023-01-27T07:08:03;102590.0;;;4.9;84.0
56594;BME280;42474;51.660;5.824;2023-01-27T07:13:03;102590.0;;;4.9;84.0
56594;BME280;42474;51.660;5.824;2023-01-27T07:23:04;102600.0;;;5.0;83.0
56594;BME280;42474;51.660;5.824;2023-01-27T07:28:03;102600.0;;;5.0;83.0
56594;BME280;42474;51.660;5.824;2023-01-27T07:33:04;102610.0;;;5.0;83.0
56594;BME280;42474;51.660;5.824;2023-01-27T07:38:03;102610.0;;;5.0;83.0
56594;BME280;42474;51.660;5.824;2023-01-27T07:43:03;102620.0;;;4.9;83.5
56594;BME280;42474;51.660;5.824;2023-01-27T07:48:04;102630.0;;;4.9;83.5
56594;BME280;42474;51.660;5.824;2023-01-27T07:53:03;102630.0;;;5.0;83.5
56594;BME280;42474;51.660;5.824;2023-01-27T07:58:03;102630.0;;;4.9;83.5
56594;BME280;42474;51.660;5.824;2023-01-27T08:03:03;102640.0;;;4.9;83.5
56594;BME280;42474;51.660;5.824;2023-01-27T08:08:03;102620.0;;;4.9;83.5
56594;BME280;42474;51.660;5.824;2023-01-27T08:13:04;102640.0;;;4.9;83.0
56594;BME280;42474;51.660;5.824;2023-01-27T08:18:03;102640.0;;;4.8;83.0
56594;BME280;42474;51.660;5.824;2023-01-27T08:23:03;102640.0;;;4.9;83.0
56594;BME280;42474;51.660;5.824;2023-01-27T08:28:03;102650.0;;;4.9;83.0
56594;BME280;42474;51.660;5.824;2023-01-27T08:33:03;102640.0;;;4.9;82.5
56594;BME280;42474;51.660;5.824;2023-01-27T08:38:03;102650.0;;;4.8;83.0
56594;BME280;42474;51.660;5.824;2023-01-27T08:43:03;102650.0;;;4.9;83.0
56594;BME280;42474;51.660;5.824;2023-01-27T08:48:03;102650.0;;;4.9;82.5
56594;BME280;42474;51.660;5.824;2023-01-27T08:53:03;102670.0;;;4.9;82.5
56594;BME280;42474;51.660;5.824;2023-01-27T08:58:03;102670.0;;;4.9;82.5
56594;BME280;42474;51.660;5.824;2023-01-27T09:03:03;102670.0;;;5.0;82.0
56594;BME280;42474;51.660;5.824;2023-01-27T09:08:03;102670.0;;;4.9;82.0
56594;BME280;42474;51.660;5.824;2023-01-27T09:13:03;102690.0;;;4.9;82.0
56594;BME280;42474;51.660;5.824;2023-01-27T09:18:03;102690.0;;;4.9;82.0
56594;BME280;42474;51.660;5.824;2023-01-27T09:23:03;102690.0;;;4.9;82.0
56594;BME280;42474;51.660;5.824;2023-01-27T09:28:03;102700.0;;;4.9;82.0
56594;BME280;42474;51.660;5.824;2023-01-27T09:33:03;102690.0;;;5.0;82.0
56594;BME280;42474;51.660;5.824;2023-01-27T09:38:03;102700.0;;;5.0;82.0
56594;BME280;42474;51.660;5.824;2023-01-27T09:44:37;102710.0;;;5.1;81.5
56594;BME280;42474;51.660;5.824;2023-01-27T09:49:43;102710.0;;;5.1;81.0
56594;BME280;42474;51.660;5.824;2023-01-27T09:55:48;102700.0;;;5.1;81.0
56594;BME280;42474;51.660;5.824;2023-01-27T10:01:09;102720.0;;;5.1;81.5
56594;BME280;42474;51.660;5.824;2023-01-27T10:07:52;102720.0;;;5.1;81.5
56594;BME280;42474;51.660;5.824;2023-01-27T10:13:50;102710.0;;;5.3;81.5
56594;BME280;42474;51.660;5.824;2023-01-27T10:19:36;102720.0;;;5.4;81.5
56594;BME280;42474;51.660;5.824;2023-01-27T10:25:15;102720.0;;;5.3;81.0
56594;BME280;42474;51.660;5.824;2023-01-27T10:28:36;102710.0;;;5.4;81.0
56594;BME280;42474;51.660;5.824;2023-01-27T10:32:06;102710.0;;;5.4;81.0
56594;BME280;42474;51.660;5.824;2023-01-27T10:36:06;102710.0;;;5.3;81.0
56594;BME280;42474;51.660;5.824;2023-01-27T10:40:44;102710.0;;;5.3;81.0
56594;BME280;42474;51.660;5.824;2023-01-27T10:46:28;102710.0;;;5.3;81.5
56594;BME280;42474;51.660;5.824;2023-01-27T10:50:22;102690.0;;;5.4;81.5
56594;BME280;42474;51.660;5.824;2023-01-27T10:54:11;102700.0;;;5.5;81.0
56594;BME280;42474;51.660;5.824;2023-01-27T10:58:08;102690.0;;;5.5;81.0
56594;BME280;42474;51.660;5.824;2023-01-27T11:03:29;102700.0;;;5.6;80.5
56594;BME280;42474;51.660;5.824;2023-01-27T11:08:11;102690.0;;;5.6;80.5
56594;BME280;42474;51.660;5.824;2023-01-27T11:13:07;102700.0;;;5.6;79.5
56594;BME280;42474;51.660;5.824;2023-01-27T11:18:10;102690.0;;;5.8;79.5
56594;BME280;42474;51.660;5.824;2023-01-27T11:23:14;102690.0;;;5.7;79.0
56594;BME280;42474;51.660;5.824;2023-01-27T11:28:33;102690.0;;;5.6;78.5
56594;BME280;42474;51.660;5.824;2023-01-27T11:33:29;102680.0;;;5.6;79.5
56594;BME280;42474;51.660;5.824;2023-01-27T11:38:03;102680.0;;;5.7;79.5
56594;BME280;42474;51.660;5.824;2023-01-27T11:43:03;102680.0;;;5.7;78.5
56594;BME280;42474;51.660;5.824;2023-01-27T11:48:06;102690.0;;;5.8;78.0
56594;BME280;42474;51.660;5.824;2023-01-27T11:53:17;102680.0;;;5.8;78.0
56594;BME280;42474;51.660;5.824;2023-01-27T11:58:10;102680.0;;;5.9;78.5
56594;BME280;42474;51.660;5.824;2023-01-27T12:03:19;102680.0;;;5.9;77.5
56594;BME280;42474;51.660;5.824;2023-01-27T12:08:04;102670.0;;;6.0;78.5
56594;BME280;42474;51.660;5.824;2023-01-27T12:13:08;102660.0;;;6.1;77.5
56594;BME280;42474;51.660;5.824;2023-01-27T12:18:14;102660.0;;;6.1;77.0
56594;BME280;42474;51.660;5.824;2023-01-27T12:23:05;102650.0;;;6.0;77.0
56594;BME280;42474;51.660;5.824;2023-01-27T12:28:03;102650.0;;;5.9;77.0
56594;BME280;42474;51.660;5.824;2023-01-27T12:33:10;102660.0;;;5.9;77.0
56594;BME280;42474;51.660;5.824;2023-01-27T12:38:04;102640.0;;;5.8;77.0
56594;BME280;42474;51.660;5.824;2023-01-27T12:43:14;102640.0;;;5.9;78.0
56594;BME280;42474;51.660;5.824;2023-01-27T12:53:08;102630.0;;;5.9;78.0
56594;BME280;42474;51.660;5.824;2023-01-27T12:58:03;102630.0;;;6.0;78.0
56594;BME280;42474;51.660;5.824;2023-01-27T13:03:10;102630.0;;;6.0;77.0
56594;BME280;42474;51.660;5.824;2023-01-27T13:08:04;102640.0;;;6.0;77.0
56594;BME280;42474;51.660;5.824;2023-01-27T13:13:03;102630.0;;;6.1;77.0
56594;BME280;42474;51.660;5.824;2023-01-27T13:18:11;102630.0;;;6.0;77.0
56594;BME280;42474;51.660;5.824;2023-01-27T13:23:10;102640.0;;;6.0;77.0
56594;BME280;42474;51.660;5.824;2023-01-27T13:28:07;102640.0;;;6.0;77.5
56594;BME280;42474;51.660;5.824;2023-01-27T13:33:29;102640.0;;;6.0;77.0
56594;BME280;42474;51.660;5.824;2023-01-27T13:38:20;102640.0;;;6.0;77.0
56594;BME280;42474;51.660;5.824;2023-01-27T13:43:29;102630.0;;;6.1;77.0
56594;BME280;42474;51.660;5.824;2023-01-27T13:48:19;102640.0;;;6.2;77.0
56594;BME280;42474;51.660;5.824;2023-01-27T13:53:04;102650.0;;;6.1;76.5
56594;BME280;42474;51.660;5.824;2023-01-27T13:58:49;102640.0;;;6.1;76.0
56594;BME280;42474;51.660;5.824;2023-01-27T14:04:57;102640.0;;;6.1;76.0
56594;BME280;42474;51.660;5.824;2023-01-27T14:10:52;102650.0;;;6.1;76.5
56594;BME280;42474;51.660;5.824;2023-01-27T14:16:18;102640.0;;;6.1;76.5
56594;BME280;42474;51.660;5.824;2023-01-27T14:21:36;102650.0;;;6.1;75.0
56594;BME280;42474;51.660;5.824;2023-01-27T14:26:49;102650.0;;;6.1;75.0
56594;BME280;42474;51.660;5.824;2023-01-27T14:31:41;102650.0;;;6.1;74.5
56594;BME280;42474;51.660;5.824;2023-01-27T14:36:30;102670.0;;;6.1;73.5
56594;BME280;42474;51.660;5.824;2023-01-27T14:41:26;102670.0;;;6.0;73.0
56594;BME280;42474;51.660;5.824;2023-01-27T14:45:36;102680.0;;;6.0;72.5
56594;BME280;42474;51.660;5.824;2023-01-27T14:51:32;102680.0;;;5.9;72.5
56594;BME280;42474;51.660;5.824;2023-01-27T14:56:38;102680.0;;;5.8;73.5
56594;BME280;42474;51.660;5.824;2023-01-27T15:03:14;102680.0;;;5.8;73.5
56594;BME280;42474;51.660;5.824;2023-01-27T15:07:59;102690.0;;;5.8;73.5
56594;BME280;42474;51.660;5.824;2023-01-27T15:13:34;102690.0;;;5.8;74.0
56594;BME280;42474;51.660;5.824;2023-01-27T15:19:35;102700.0;;;5.6;74.0
56594;BME280;42474;51.660;5.824;2023-01-27T15:25:36;102700.0;;;5.5;75.0
56594;BME280;42474;51.660;5.824;2023-01-27T15:26:50;102710.0;;;5.6;75.5
56594;BME280;42474;51.660;5.824;2023-01-27T15:28:03;102710.0;;;5.6;75.5
56594;BME280;42474;51.660;5.824;2023-01-27T15:38:19;102720.0;;;5.4;75.5
56594;BME280;42474;51.660;5.824;2023-01-27T15:43:03;102730.0;;;5.4;76.0
56594;BME280;42474;51.660;5.824;2023-01-27T15:48:05;102720.0;;;5.5;76.0
56594;BME280;42474;51.660;5.824;2023-01-27T15:53:15;102730.0;;;5.5;76.0
56594;BME280;42474;51.660;5.824;2023-01-27T15:58:18;102730.0;;;5.4;75.5
56594;BME280;42474;51.660;5.824;2023-01-27T16:03:16;102730.0;;;5.4;75.5
56594;BME280;42474;51.660;5.824;2023-01-27T16:08:10;102720.0;;;5.2;75.0
56594;BME280;42474;51.660;5.824;2023-01-27T16:13:29;102730.0;;;5.1;75.0
56594;BME280;42474;51.660;5.824;2023-01-27T16:18:39;102730.0;;;5.2;75.0
56594;BME280;42474;51.660;5.824;2023-01-27T16:23:09;102740.0;;;5.1;75.5
56594;BME280;42474;51.660;5.824;2023-01-27T16:28:13;102740.0;;;5.1;75.5
56594;BME280;42474;51.660;5.824;2023-01-27T16:33:17;102740.0;;;5.2;75.5
56594;BME280;42474;51.660;5.824;2023-01-27T16:38:19;102750.0;;;5.2;75.5
56594;BME280;42474;51.660;5.824;2023-01-27T16:43:21;102740.0;;;5.2;75.5
56594;BME280;42474;51.660;5.824;2023-01-27T16:48:14;102750.0;;;5.3;75.5
56594;BME280;42474;51.660;5.824;2023-01-27T16:53:06;102760.0;;;5.3;75.5
56594;BME280;42474;51.660;5.824;2023-01-27T16:58:12;102770.0;;;5.2;75.5
56594;BME280;42474;51.660;5.824;2023-01-27T17:03:07;102770.0;;;5.2;76.0
56594;BME280;42474;51.660;5.824;2023-01-27T17:08:16;102780.0;;;5.3;75.5
56594;BME280;42474;51.660;5.824;2023-01-27T17:13:03;102780.0;;;5.3;75.5
56594;BME280;42474;51.660;5.824;2023-01-27T17:18:07;102780.0;;;5.4;75.0
56594;BME280;42474;51.660;5.824;2023-01-27T17:23:04;102780.0;;;5.4;75.0
56594;BME280;42474;51.660;5.824;2023-01-27T17:28:12;102780.0;;;5.4;75.0
56594;BME280;42474;51.660;5.824;2023-01-27T17:33:07;102790.0;;;5.3;75.0
56594;BME280;42474;51.660;5.824;2023-01-27T17:38:16;102790.0;;;5.3;75.0
56594;BME280;42474;51.660;5.824;2023-01-27T17:43:22;102800.0;;;5.3;75.5
56594;BME280;42474;51.660;5.824;2023-01-27T17:48:03;102800.0;;;5.4;75.5
56594;BME280;42474;51.660;5.824;2023-01-27T17:53:08;102810.0;;;5.4;76.0
56594;BME280;42474;51.660;5.824;2023-01-27T17:58:16;102800.0;;;5.3;76.5
56594;BME280;42474;51.660;5.824;2023-01-27T18:03:08;102800.0;;;5.4;76.5
56594;BME280;42474;51.660;5.824;2023-01-27T18:08:03;102800.0;;;5.3;76.5
56594;BME280;42474;51.660;5.824;2023-01-27T18:13:18;102810.0;;;5.4;76.0
56594;BME280;42474;51.660;5.824;2023-01-27T18:18:05;102810.0;;;5.2;75.0
56594;BME280;42474;51.660;5.824;2023-01-27T18:23:11;102810.0;;;5.1;75.0
56594;BME280;42474;51.660;5.824;2023-01-27T18:28:03;102820.0;;;5.2;75.5
56594;BME280;42474;51.660;5.824;2023-01-27T18:33:03;102820.0;;;5.2;75.5
56594;BME280;42474;51.660;5.824;2023-01-27T18:38:21;102820.0;;;5.3;75.5
56594;BME280;42474;51.660;5.824;2023-01-27T18:43:04;102830.0;;;5.4;75.5
56594;BME280;42474;51.660;5.824;2023-01-27T18:48:08;102830.0;;;5.3;75.5
56594;BME280;42474;51.660;5.824;2023-01-27T18:53:10;102840.0;;;5.1;76.5
56594;BME280;42474;51.660;5.824;2023-01-27T18:58:03;102840.0;;;5.1;76.5
56594;BME280;42474;51.660;5.824;2023-01-27T19:03:08;102840.0;;;5.1;76.5
56594;BME280;42474;51.660;5.824;2023-01-27T19:08:03;102840.0;;;5.1;76.5
56594;BME280;42474;51.660;5.824;2023-01-27T19:13:03;102860.0;;;5.0;76.5
56594;BME280;42474;51.660;5.824;2023-01-27T19:18:19;102860.0;;;5.1;76.0
56594;BME280;42474;51.660;5.824;2023-01-27T19:23:03;102860.0;;;5.1;75.5
56594;BME280;42474;51.660;5.824;2023-01-27T19:28:11;102860.0;;;5.1;74.5
56594;BME280;42474;51.660;5.824;2023-01-27T19:33:11;102870.0;;;5.1;74.5
56594;BME280;42474;51.660;5.824;2023-01-27T19:38:03;102860.0;;;5.1;73.5
56594;BME280;42474;51.660;5.824;2023-01-27T19:43:03;102870.0;;;5.0;74.0
56594;BME280;42474;51.660;5.824;2023-01-27T19:48:09;102870.0;;;5.0;74.5
56594;BME280;42474;51.660;5.824;2023-01-27T19:53:03;102870.0;;;5.1;74.5
56594;BME280;42474;51.660;5.824;2023-01-27T19:58:03;102880.0;;;5.1;74.0
56594;BME280;42474;51.660;5.824;2023-01-27T20:03:03;102880.0;;;5.0;73.5
56594;BME280;42474;51.660;5.824;2023-01-27T20:08:03;102880.0;;;5.0;74.5
56594;BME280;42474;51.660;5.824;2023-01-27T20:13:05;102880.0;;;5.0;74.5
56594;BME280;42474;51.660;5.824;2023-01-27T20:18:03;102880.0;;;5.0;75.0
56594;BME280;42474;51.660;5.824;2023-01-27T20:23:03;102890.0;;;5.0;75.0
56594;BME280;42474;51.660;5.824;2023-01-27T20:28:03;102890.0;;;5.0;75.0
56594;BME280;42474;51.660;5.824;2023-01-27T20:33:03;102890.0;;;4.9;75.0
56594;BME280;42474;51.660;5.824;2023-01-27T20:38:03;102890.0;;;4.9;75.5
56594;BME280;42474;51.660;5.824;2023-01-27T20:43:03;102890.0;;;4.9;75.0
56594;BME280;42474;51.660;5.824;2023-01-27T20:48:03;102890.0;;;4.9;75.0
56594;BME280;42474;51.660;5.824;2023-01-27T20:53:03;102880.0;;;4.8;75.0
56594;BME280;42474;51.660;5.824;2023-01-27T20:58:03;102880.0;;;4.8;75.0
56594;BME280;42474;51.660;5.824;2023-01-27T21:03:03;102890.0;;;4.8;75.0
56594;BME280;42474;51.660;5.824;2023-01-27T21:08:03;102890.0;;;4.6;75.5
56594;BME280;42474;51.660;5.824;2023-01-27T21:13:03;102890.0;;;4.8;75.0
56594;BME280;42474;51.660;5.824;2023-01-27T21:18:03;102890.0;;;4.8;75.0
56594;BME280;42474;51.660;5.824;2023-01-27T21:23:03;102890.0;;;4.8;75.5
56594;BME280;42474;51.660;5.824;2023-01-27T21:28:03;102900.0;;;4.7;75.5
56594;BME280;42474;51.660;5.824;2023-01-27T21:33:03;102880.0;;;4.6;75.5
56594;BME280;42474;51.660;5.824;2023-01-27T21:38:03;102890.0;;;4.7;75.5
56594;BME280;42474;51.660;5.824;2023-01-27T21:43:03;102880.0;;;4.6;75.0
56594;BME280;42474;51.660;5.824;2023-01-27T21:48:03;102880.0;;;4.5;75.0
56594;BME280;42474;51.660;5.824;2023-01-27T21:53:09;102870.0;;;4.5;75.0
56594;BME280;42474;51.660;5.824;2023-01-27T21:58:03;102880.0;;;4.4;75.0
56594;BME280;42474;51.660;5.824;2023-01-27T22:03:03;102880.0;;;4.5;75.0
56594;BME280;42474;51.660;5.824;2023-01-27T22:08:03;102870.0;;;4.4;74.5
56594;BME280;42474;51.660;5.824;2023-01-27T22:13:04;102870.0;;;4.5;74.5
56594;BME280;42474;51.660;5.824;2023-01-27T22:23:03;102870.0;;;4.4;75.5
56594;BME280;42474;51.660;5.824;2023-01-27T22:28:03;102870.0;;;4.4;75.0
56594;BME280;42474;51.660;5.824;2023-01-27T22:33:03;102880.0;;;4.2;75.5
56594;BME280;42474;51.660;5.824;2023-01-27T22:38:03;102870.0;;;4.3;75.5
56594;BME280;42474;51.660;5.824;2023-01-27T22:43:03;102860.0;;;4.3;75.5
56594;BME280;42474;51.660;5.824;2023-01-27T22:48:03;102860.0;;;4.4;75.0
56594;BME280;42474;51.660;5.824;2023-01-27T22:53:03;102860.0;;;4.4;75.0
56594;BME280;42474;51.660;5.824;2023-01-27T22:58:03;102860.0;;;4.4;75.0
56594;BME280;42474;51.660;5.824;2023-01-27T23:03:03;102870.0;;;4.4;75.5
56594;BME280;42474;51.660;5.824;2023-01-27T23:08:03;102870.0;;;4.3;75.0
56594;BME280;42474;51.660;5.824;2023-01-27T23:13:03;102860.0;;;4.3;75.5
56594;BME280;42474;51.660;5.824;2023-01-27T23:18:03;102870.0;;;4.4;75.0
56594;BME280;42474;51.660;5.824;2023-01-27T23:23:03;102880.0;;;4.3;75.0
56594;BME280;42474;51.660;5.824;2023-01-27T23:28:03;102870.0;;;4.3;75.5
56594;BME280;42474;51.660;5.824;2023-01-27T23:33:03;102870.0;;;4.4;75.0
56594;BME280;42474;51.660;5.824;2023-01-27T23:38:03;102860.0;;;4.4;75.0
56594;BME280;42474;51.660;5.824;2023-01-27T23:43:04;102870.0;;;4.4;75.0
56594;BME280;42474;51.660;5.824;2023-01-27T23:48:03;102870.0;;;4.3;75.0
56594;BME280;42474;51.660;5.824;2023-01-27T23:53:03;102870.0;;;4.3;75.5
56594;BME280;42474;51.660;5.824;2023-01-27T23:58:03;102860.0;;;4.3;75.0
